sensor_id;sensor_type;location;lat;lon;timestamp;pressure;altitude;pressure_sealevel;temperature;humidity
967;BME280;56108;48.730;9.304;2024-02-04T00:01:17;98669.28;;;7.01;100.00
967;BME280;56108;48.730;9.304;2024-02-04T00:03:23;98660.44;;;7.02;100.00
967;BME280;56108;48.730;9.304;2024-02-04T00:05:32;98663.88;;;6.81;100.00
967;BME280;56108;48.730;9.304;2024-02-04T00:07:41;98654.59;;;6.94;100.00
967;BME280;56108;48.730;9.304;2024-02-04T00:09:55;98646.50;;;6.97;100.00
967;BME280;56108;48.730;9.304;2024-02-04T00:12:05;98648.28;;;6.97;100.00
967;BME280;56108;48.730;9.304;2024-02-04T00:14:13;98648.81;;;6.83;100.00
967;BME280;56108;48.730;9.304;2024-02-04T00:16:22;98641.09;;;6.77;100.00
967;BME280;56108;48.730;9.304;2024-02-04T00:18:30;98634.00;;;6.79;100.00
967;BME280;56108;48.730;9.304;2024-02-04T00:20:38;98632.31;;;6.76;100.00
967;BME280;56108;48.730;9.304;2024-02-04T00:22:47;98623.28;;;6.82;100.00
967;BME280;56108;48.730;9.304;2024-02-04T00:24:58;98615.63;;;6.74;100.00
967;BME280;56108;48.730;9.304;2024-02-04T00:27:10;98609.69;;;6.91;100.00
967;BME280;56108;48.730;9.304;2024-02-04T00:29:19;98603.44;;;6.70;100.00
967;BME280;56108;48.730;9.304;2024-02-04T00:31:27;98595.75;;;6.64;100.00
967;BME280;56108;48.730;9.304;2024-02-04T00:33:36;98592.94;;;6.69;100.00
967;BME280;56108;48.730;9.304;2024-02-04T00:35:45;98586.78;;;6.68;100.00
967;BME280;56108;48.730;9.304;2024-02-04T00:37:54;98593.03;;;6.42;100.00
967;BME280;56108;48.730;9.304;2024-02-04T00:40:08;98592.50;;;6.33;100.00
967;BME280;56108;48.730;9.304;2024-02-04T00:42:16;98599.22;;;6.41;100.00
967;BME280;56108;48.730;9.304;2024-02-04T00:44:25;98595.38;;;6.26;100.00
967;BME280;56108;48.730;9.304;2024-02-04T00:46:34;98591.75;;;6.29;100.00
967;BME280;56108;48.730;9.304;2024-02-04T00:48:42;98596.50;;;6.19;100.00
967;BME280;56108;48.730;9.304;2024-02-04T00:50:51;98591.81;;;6.27;100.00
967;BME280;56108;48.730;9.304;2024-02-04T00:53:00;98608.31;;;6.09;100.00
967;BME280;56108;48.730;9.304;2024-02-04T00:55:11;98613.97;;;5.98;100.00
967;BME280;56108;48.730;9.304;2024-02-04T00:57:19;98606.50;;;6.11;100.00
967;BME280;56108;48.730;9.304;2024-02-04T00:59:25;98610.38;;;6.01;100.00
967;BME280;56108;48.730;9.304;2024-02-04T01:01:33;98612.75;;;5.82;100.00
967;BME280;56108;48.730;9.304;2024-02-04T01:03:42;98612.69;;;5.84;100.00
967;BME280;56108;48.730;9.304;2024-02-04T01:05:52;98600.81;;;5.97;100.00
967;BME280;56108;48.730;9.304;2024-02-04T01:08:01;98594.47;;;5.76;100.00
967;BME280;56108;48.730;9.304;2024-02-04T01:10:13;98599.69;;;5.78;100.00
967;BME280;56108;48.730;9.304;2024-02-04T01:12:22;98609.09;;;5.60;100.00
967;BME280;56108;48.730;9.304;2024-02-04T01:14:31;98608.13;;;5.62;100.00
967;BME280;56108;48.730;9.304;2024-02-04T01:16:37;98613.56;;;5.58;100.00
967;BME280;56108;48.730;9.304;2024-02-04T01:18:45;98608.97;;;5.64;100.00
967;BME280;56108;48.730;9.304;2024-02-04T01:20:54;98602.13;;;5.84;100.00
967;BME280;56108;48.730;9.304;2024-02-04T01:23:02;98603.34;;;5.73;100.00
967;BME280;56108;48.730;9.304;2024-02-04T01:25:14;98609.09;;;5.86;100.00
967;BME280;56108;48.730;9.304;2024-02-04T01:27:24;98607.75;;;6.01;100.00
967;BME280;56108;48.730;9.304;2024-02-04T01:29:32;98608.75;;;5.97;100.00
967;BME280;56108;48.730;9.304;2024-02-04T01:31:42;98600.59;;;6.03;100.00
967;BME280;56108;48.730;9.304;2024-02-04T01:33:51;98596.25;;;6.02;100.00
967;BME280;56108;48.730;9.304;2024-02-04T01:36:01;98590.03;;;6.03;100.00
967;BME280;56108;48.730;9.304;2024-02-04T01:38:09;98597.88;;;6.06;100.00
967;BME280;56108;48.730;9.304;2024-02-04T01:40:20;98597.91;;;6.05;100.00
967;BME280;56108;48.730;9.304;2024-02-04T01:42:29;98586.44;;;6.06;100.00
967;BME280;56108;48.730;9.304;2024-02-04T01:44:35;98577.97;;;5.96;100.00
967;BME280;56108;48.730;9.304;2024-02-04T01:46:43;98591.63;;;5.82;100.00
967;BME280;56108;48.730;9.304;2024-02-04T01:48:52;98589.25;;;5.74;100.00
967;BME280;56108;48.730;9.304;2024-02-04T01:51:02;98596.81;;;5.85;100.00
967;BME280;56108;48.730;9.304;2024-02-04T01:53:11;98597.13;;;5.76;100.00
967;BME280;56108;48.730;9.304;2024-02-04T01:55:22;98599.81;;;5.74;100.00
967;BME280;56108;48.730;9.304;2024-02-04T01:57:30;98598.97;;;5.72;100.00
967;BME280;56108;48.730;9.304;2024-02-04T01:59:40;98596.28;;;5.74;100.00
967;BME280;56108;48.730;9.304;2024-02-04T02:01:49;98599.81;;;5.74;100.00
967;BME280;56108;48.730;9.304;2024-02-04T02:03:57;98591.53;;;5.85;100.00
967;BME280;56108;48.730;9.304;2024-02-04T02:06:07;98595.41;;;5.73;100.00
967;BME280;56108;48.730;9.304;2024-02-04T02:08:16;98600.31;;;5.86;100.00
967;BME280;56108;48.730;9.304;2024-02-04T02:10:27;98598.38;;;5.91;100.00
967;BME280;56108;48.730;9.304;2024-02-04T02:12:39;98600.22;;;6.14;100.00
967;BME280;56108;48.730;9.304;2024-02-04T02:14:54;98601.31;;;6.08;100.00
967;BME280;56108;48.730;9.304;2024-02-04T02:17:09;98604.66;;;6.13;100.00
967;BME280;56108;48.730;9.304;2024-02-04T02:19:34;98609.63;;;6.22;100.00
967;BME280;56108;48.730;9.304;2024-02-04T02:21:54;98599.75;;;6.27;100.00
967;BME280;56108;48.730;9.304;2024-02-04T02:24:10;98596.88;;;6.34;100.00
967;BME280;56108;48.730;9.304;2024-02-04T02:26:23;98603.03;;;6.34;100.00
967;BME280;56108;48.730;9.304;2024-02-04T02:28:28;98607.72;;;6.26;100.00
967;BME280;56108;48.730;9.304;2024-02-04T02:30:37;98609.31;;;6.30;100.00
967;BME280;56108;48.730;9.304;2024-02-04T02:32:48;98597.91;;;6.30;100.00
967;BME280;56108;48.730;9.304;2024-02-04T02:35:00;98604.63;;;6.38;100.00
967;BME280;56108;48.730;9.304;2024-02-04T02:37:20;98608.78;;;6.45;100.00
967;BME280;56108;48.730;9.304;2024-02-04T02:39:32;98617.53;;;6.71;100.00
967;BME280;56108;48.730;9.304;2024-02-04T02:41:49;98614.59;;;6.55;100.00
967;BME280;56108;48.730;9.304;2024-02-04T02:43:59;98603.69;;;6.64;100.00
967;BME280;56108;48.730;9.304;2024-02-04T02:46:08;98616.59;;;6.48;100.00
967;BME280;56108;48.730;9.304;2024-02-04T02:48:17;98610.22;;;6.54;100.00
967;BME280;56108;48.730;9.304;2024-02-04T02:50:26;98603.69;;;6.64;100.00
967;BME280;56108;48.730;9.304;2024-02-04T02:52:35;98611.19;;;6.51;100.00
967;BME280;56108;48.730;9.304;2024-02-04T02:54:44;98609.19;;;6.58;100.00
967;BME280;56108;48.730;9.304;2024-02-04T02:56:52;98605.63;;;6.59;100.00
967;BME280;56108;48.730;9.304;2024-02-04T02:59:01;98597.69;;;6.59;100.00
967;BME280;56108;48.730;9.304;2024-02-04T03:01:09;98604.00;;;6.55;100.00
967;BME280;56108;48.730;9.304;2024-02-04T03:03:17;98603.78;;;6.61;100.00
967;BME280;56108;48.730;9.304;2024-02-04T03:05:26;98607.44;;;6.57;100.00
967;BME280;56108;48.730;9.304;2024-02-04T03:07:35;98602.00;;;6.62;100.00
967;BME280;56108;48.730;9.304;2024-02-04T03:09:44;98601.97;;;6.63;100.00
967;BME280;56108;48.730;9.304;2024-02-04T03:11:55;98605.00;;;6.52;100.00
967;BME280;56108;48.730;9.304;2024-02-04T03:14:04;98594.13;;;6.60;100.00
967;BME280;56108;48.730;9.304;2024-02-04T03:16:12;98580.22;;;6.55;100.00
967;BME280;56108;48.730;9.304;2024-02-04T03:18:21;98581.69;;;6.62;100.00
967;BME280;56108;48.730;9.304;2024-02-04T03:20:29;98574.00;;;6.56;100.00
967;BME280;56108;48.730;9.304;2024-02-04T03:22:39;98580.84;;;6.62;100.00
967;BME280;56108;48.730;9.304;2024-02-04T03:24:48;98592.44;;;6.58;100.00
967;BME280;56108;48.730;9.304;2024-02-04T03:27:00;98586.94;;;6.64;100.00
967;BME280;56108;48.730;9.304;2024-02-04T03:29:08;98587.81;;;6.64;100.00
967;BME280;56108;48.730;9.304;2024-02-04T03:31:19;98584.34;;;6.62;100.00
967;BME280;56108;48.730;9.304;2024-02-04T03:33:28;98582.44;;;6.66;100.00
967;BME280;56108;48.730;9.304;2024-02-04T03:35:37;98587.50;;;6.72;100.00
967;BME280;56108;48.730;9.304;2024-02-04T03:37:45;98585.19;;;6.63;100.00
967;BME280;56108;48.730;9.304;2024-02-04T03:39:54;98585.88;;;6.68;100.00
967;BME280;56108;48.730;9.304;2024-02-04T03:42:06;98582.75;;;6.58;100.00
967;BME280;56108;48.730;9.304;2024-02-04T03:44:14;98579.69;;;6.69;100.00
967;BME280;56108;48.730;9.304;2024-02-04T03:46:22;98573.59;;;6.67;100.00
967;BME280;56108;48.730;9.304;2024-02-04T03:48:30;98581.88;;;6.58;100.00
967;BME280;56108;48.730;9.304;2024-02-04T03:50:39;98597.97;;;6.51;100.00
967;BME280;56108;48.730;9.304;2024-02-04T03:52:48;98587.56;;;6.47;100.00
967;BME280;56108;48.730;9.304;2024-02-04T03:54:56;98579.19;;;6.59;100.00
967;BME280;56108;48.730;9.304;2024-02-04T03:57:10;98570.44;;;6.57;100.00
967;BME280;56108;48.730;9.304;2024-02-04T03:59:19;98567.16;;;6.74;100.00
967;BME280;56108;48.730;9.304;2024-02-04T04:01:27;98576.88;;;6.73;100.00
967;BME280;56108;48.730;9.304;2024-02-04T04:03:36;98572.66;;;6.68;100.00
967;BME280;56108;48.730;9.304;2024-02-04T04:05:47;98555.47;;;6.56;100.00
967;BME280;56108;48.730;9.304;2024-02-04T04:07:55;98555.63;;;6.53;100.00
967;BME280;56108;48.730;9.304;2024-02-04T04:10:05;98556.34;;;6.57;100.00
967;BME280;56108;48.730;9.304;2024-02-04T04:12:16;98560.38;;;6.43;100.00
967;BME280;56108;48.730;9.304;2024-02-04T04:14:24;98567.09;;;6.28;100.00
967;BME280;56108;48.730;9.304;2024-02-04T04:16:33;98576.91;;;6.25;100.00
967;BME280;56108;48.730;9.304;2024-02-04T04:18:39;98576.28;;;6.42;100.00
967;BME280;56108;48.730;9.304;2024-02-04T04:20:47;98575.78;;;6.32;100.00
967;BME280;56108;48.730;9.304;2024-02-04T04:22:56;98579.28;;;6.33;100.00
967;BME280;56108;48.730;9.304;2024-02-04T04:25:04;98577.75;;;6.27;100.00
967;BME280;56108;48.730;9.304;2024-02-04T04:27:16;98584.81;;;6.26;100.00
967;BME280;56108;48.730;9.304;2024-02-04T04:29:21;98582.91;;;6.30;100.00
967;BME280;56108;48.730;9.304;2024-02-04T04:31:30;98578.31;;;6.35;100.00
967;BME280;56108;48.730;9.304;2024-02-04T04:33:38;98587.16;;;6.34;100.00
967;BME280;56108;48.730;9.304;2024-02-04T04:35:46;98584.22;;;6.42;100.00
967;BME280;56108;48.730;9.304;2024-02-04T04:37:56;98586.84;;;6.42;100.00
967;BME280;56108;48.730;9.304;2024-02-04T04:40:06;98586.81;;;6.43;100.00
967;BME280;56108;48.730;9.304;2024-02-04T04:42:17;98587.13;;;6.59;100.00
967;BME280;56108;48.730;9.304;2024-02-04T04:44:25;98600.72;;;6.72;100.00
967;BME280;56108;48.730;9.304;2024-02-04T04:46:37;98583.47;;;6.62;100.00
967;BME280;56108;48.730;9.304;2024-02-04T04:48:46;98596.47;;;6.68;100.00
967;BME280;56108;48.730;9.304;2024-02-04T04:50:52;98590.78;;;6.55;100.00
967;BME280;56108;48.730;9.304;2024-02-04T04:53:00;98595.75;;;6.64;100.00
967;BME280;56108;48.730;9.304;2024-02-04T04:55:09;98595.75;;;6.64;100.00
967;BME280;56108;48.730;9.304;2024-02-04T04:57:20;98601.75;;;6.68;100.00
967;BME280;56108;48.730;9.304;2024-02-04T04:59:28;98605.28;;;6.68;100.00
967;BME280;56108;48.730;9.304;2024-02-04T05:01:36;98600.78;;;6.70;100.00
967;BME280;56108;48.730;9.304;2024-02-04T05:03:45;98605.22;;;6.70;100.00
967;BME280;56108;48.730;9.304;2024-02-04T05:05:55;98605.97;;;6.73;100.00
967;BME280;56108;48.730;9.304;2024-02-04T05:08:06;98595.50;;;6.70;100.00
967;BME280;56108;48.730;9.304;2024-02-04T05:10:14;98593.03;;;6.66;100.00
967;BME280;56108;48.730;9.304;2024-02-04T05:12:23;98591.06;;;6.71;100.00
967;BME280;56108;48.730;9.304;2024-02-04T05:14:31;98587.16;;;6.58;100.00
967;BME280;56108;48.730;9.304;2024-02-04T05:16:40;98586.81;;;6.67;100.00
967;BME280;56108;48.730;9.304;2024-02-04T05:18:49;98595.59;;;6.67;100.00
967;BME280;56108;48.730;9.304;2024-02-04T05:20:57;98598.94;;;6.72;100.00
967;BME280;56108;48.730;9.304;2024-02-04T05:23:05;98601.03;;;6.64;100.00
967;BME280;56108;48.730;9.304;2024-02-04T05:25:14;98602.16;;;6.57;100.00
967;BME280;56108;48.730;9.304;2024-02-04T05:27:25;98595.84;;;6.61;100.00
967;BME280;56108;48.730;9.304;2024-02-04T05:29:34;98604.31;;;6.71;100.00
967;BME280;56108;48.730;9.304;2024-02-04T05:31:42;98606.25;;;6.66;100.00
967;BME280;56108;48.730;9.304;2024-02-04T05:33:51;98605.28;;;6.68;100.00
967;BME280;56108;48.730;9.304;2024-02-04T05:36:00;98602.41;;;6.51;100.00
967;BME280;56108;48.730;9.304;2024-02-04T05:38:09;98598.72;;;6.55;100.00
967;BME280;56108;48.730;9.304;2024-02-04T05:40:18;98594.88;;;6.64;100.00
967;BME280;56108;48.730;9.304;2024-02-04T05:42:29;98594.28;;;6.56;100.00
967;BME280;56108;48.730;9.304;2024-02-04T05:44:37;98594.44;;;6.52;100.00
967;BME280;56108;48.730;9.304;2024-02-04T05:46:45;98589.88;;;6.56;100.00
967;BME280;56108;48.730;9.304;2024-02-04T05:48:54;98589.63;;;6.62;100.00
967;BME280;56108;48.730;9.304;2024-02-04T05:51:03;98603.94;;;6.57;100.00
967;BME280;56108;48.730;9.304;2024-02-04T05:53:11;98611.72;;;6.61;100.00
967;BME280;56108;48.730;9.304;2024-02-04T05:55:19;98621.66;;;6.54;100.00
967;BME280;56108;48.730;9.304;2024-02-04T05:57:30;98626.88;;;6.56;100.00
967;BME280;56108;48.730;9.304;2024-02-04T05:59:36;98617.41;;;6.50;100.00
967;BME280;56108;48.730;9.304;2024-02-04T06:01:45;98617.41;;;6.50;100.00
967;BME280;56108;48.730;9.304;2024-02-04T06:03:50;98612.25;;;6.47;100.00
967;BME280;56108;48.730;9.304;2024-02-04T06:05:59;98617.16;;;6.57;100.00
967;BME280;56108;48.730;9.304;2024-02-04T06:08:08;98616.88;;;6.41;100.00
967;BME280;56108;48.730;9.304;2024-02-04T06:10:16;98623.72;;;6.46;100.00
967;BME280;56108;48.730;9.304;2024-02-04T06:12:25;98618.03;;;6.57;100.00
967;BME280;56108;48.730;9.304;2024-02-04T06:14:37;98616.59;;;6.48;100.00
967;BME280;56108;48.730;9.304;2024-02-04T06:16:46;98619.28;;;6.47;100.00
967;BME280;56108;48.730;9.304;2024-02-04T06:18:55;98624.22;;;6.33;100.00
967;BME280;56108;48.730;9.304;2024-02-04T06:21:03;98625.94;;;6.34;100.00
967;BME280;56108;48.730;9.304;2024-02-04T06:23:12;98629.41;;;6.36;100.00
967;BME280;56108;48.730;9.304;2024-02-04T06:25:20;98632.25;;;6.30;100.00
967;BME280;56108;48.730;9.304;2024-02-04T06:27:29;98626.81;;;6.34;100.00
967;BME280;56108;48.730;9.304;2024-02-04T06:29:40;98635.34;;;6.42;100.00
967;BME280;56108;48.730;9.304;2024-02-04T06:31:48;98622.00;;;6.45;100.00
967;BME280;56108;48.730;9.304;2024-02-04T06:33:57;98623.56;;;6.51;100.00
967;BME280;56108;48.730;9.304;2024-02-04T06:36:08;98623.41;;;6.31;100.00
967;BME280;56108;48.730;9.304;2024-02-04T06:38:18;98610.34;;;6.26;100.00
967;BME280;56108;48.730;9.304;2024-02-04T06:40:23;98626.22;;;6.26;100.00
967;BME280;56108;48.730;9.304;2024-02-04T06:42:32;98619.59;;;6.14;100.00
967;BME280;56108;48.730;9.304;2024-02-04T06:44:45;98621.59;;;6.08;100.00
967;BME280;56108;48.730;9.304;2024-02-04T06:46:53;98627.03;;;6.03;100.00
967;BME280;56108;48.730;9.304;2024-02-04T06:49:01;98634.59;;;6.14;100.00
967;BME280;56108;48.730;9.304;2024-02-04T06:51:10;98644.78;;;6.24;100.00
967;BME280;56108;48.730;9.304;2024-02-04T06:53:18;98652.56;;;6.29;100.00
967;BME280;56108;48.730;9.304;2024-02-04T06:55:26;98652.66;;;6.26;100.00
967;BME280;56108;48.730;9.304;2024-02-04T06:57:35;98653.94;;;6.39;100.00
967;BME280;56108;48.730;9.304;2024-02-04T06:59:49;98656.84;;;6.32;100.00
967;BME280;56108;48.730;9.304;2024-02-04T07:01:57;98655.97;;;6.33;100.00
967;BME280;56108;48.730;9.304;2024-02-04T07:04:06;98657.91;;;6.27;100.00
967;BME280;56108;48.730;9.304;2024-02-04T07:06:12;98657.19;;;6.47;100.00
967;BME280;56108;48.730;9.304;2024-02-04T07:08:20;98651.72;;;6.52;100.00
967;BME280;56108;48.730;9.304;2024-02-04T07:10:26;98649.47;;;6.41;100.00
967;BME280;56108;48.730;9.304;2024-02-04T07:12:34;98640.56;;;6.44;100.00
967;BME280;56108;48.730;9.304;2024-02-04T07:14:42;98636.53;;;6.34;100.00
967;BME280;56108;48.730;9.304;2024-02-04T07:16:53;98619.19;;;6.25;100.00
967;BME280;56108;48.730;9.304;2024-02-04T07:19:02;98623.00;;;6.18;100.00
967;BME280;56108;48.730;9.304;2024-02-04T07:21:10;98627.91;;;6.28;100.00
967;BME280;56108;48.730;9.304;2024-02-04T07:23:19;98624.06;;;6.12;100.00
967;BME280;56108;48.730;9.304;2024-02-04T07:25:27;98627.56;;;6.13;100.00
967;BME280;56108;48.730;9.304;2024-02-04T07:27:35;98617.09;;;6.10;100.00
967;BME280;56108;48.730;9.304;2024-02-04T07:29:44;98606.69;;;6.30;100.00
967;BME280;56108;48.730;9.304;2024-02-04T07:31:55;98612.19;;;6.24;100.00
967;BME280;56108;48.730;9.304;2024-02-04T07:34:03;98609.78;;;6.18;100.00
967;BME280;56108;48.730;9.304;2024-02-04T07:36:12;98609.56;;;6.24;100.00
967;BME280;56108;48.730;9.304;2024-02-04T07:38:20;98616.41;;;6.30;100.00
967;BME280;56108;48.730;9.304;2024-02-04T07:40:28;98615.22;;;6.38;100.00
967;BME280;56108;48.730;9.304;2024-02-04T07:42:37;98618.94;;;6.33;100.00
967;BME280;56108;48.730;9.304;2024-02-04T07:44:44;98616.25;;;6.58;100.00
967;BME280;56108;48.730;9.304;2024-02-04T07:46:55;98618.97;;;6.56;100.00
967;BME280;56108;48.730;9.304;2024-02-04T07:49:03;98622.50;;;6.78;100.00
967;BME280;56108;48.730;9.304;2024-02-04T07:51:12;98621.22;;;6.90;100.00
967;BME280;56108;48.730;9.304;2024-02-04T07:53:20;98624.19;;;6.81;100.00
967;BME280;56108;48.730;9.304;2024-02-04T07:55:29;98615.97;;;6.89;100.00
967;BME280;56108;48.730;9.304;2024-02-04T07:57:37;98620.22;;;6.93;100.00
967;BME280;56108;48.730;9.304;2024-02-04T07:59:46;98617.81;;;7.10;100.00
967;BME280;56108;48.730;9.304;2024-02-04T08:01:57;98612.44;;;7.12;100.00
967;BME280;56108;48.730;9.304;2024-02-04T08:04:05;98610.94;;;7.04;100.00
967;BME280;56108;48.730;9.304;2024-02-04T08:06:16;98610.72;;;7.11;100.00
967;BME280;56108;48.730;9.304;2024-02-04T08:08:24;98610.66;;;7.12;100.00
967;BME280;56108;48.730;9.304;2024-02-04T08:10:32;98605.09;;;7.18;100.00
967;BME280;56108;48.730;9.304;2024-02-04T08:12:41;98598.19;;;7.14;100.00
967;BME280;56108;48.730;9.304;2024-02-04T08:14:49;98601.09;;;7.30;100.00
967;BME280;56108;48.730;9.304;2024-02-04T08:17:00;98599.31;;;7.52;100.00
967;BME280;56108;48.730;9.304;2024-02-04T08:19:09;98601.66;;;7.38;100.00
967;BME280;56108;48.730;9.304;2024-02-04T08:21:17;98594.47;;;7.42;100.00
967;BME280;56108;48.730;9.304;2024-02-04T08:23:26;98602.78;;;7.32;100.00
967;BME280;56108;48.730;9.304;2024-02-04T08:25:34;98607.72;;;7.62;100.00
967;BME280;56108;48.730;9.304;2024-02-04T08:27:42;98610.81;;;7.51;100.00
967;BME280;56108;48.730;9.304;2024-02-04T08:29:51;98602.56;;;7.59;100.00
967;BME280;56108;48.730;9.304;2024-02-04T08:32:03;98601.81;;;7.55;100.00
967;BME280;56108;48.730;9.304;2024-02-04T08:34:11;98607.34;;;7.71;100.00
967;BME280;56108;48.730;9.304;2024-02-04T08:36:20;98605.84;;;7.86;100.00
967;BME280;56108;48.730;9.304;2024-02-04T08:38:28;98608.69;;;7.81;100.00
967;BME280;56108;48.730;9.304;2024-02-04T08:40:36;98611.25;;;8.05;100.00
967;BME280;56108;48.730;9.304;2024-02-04T08:42:44;98612.75;;;8.31;100.00
967;BME280;56108;48.730;9.304;2024-02-04T08:44:53;98624.84;;;8.38;100.00
967;BME280;56108;48.730;9.304;2024-02-04T08:47:04;98629.81;;;8.25;100.00
967;BME280;56108;48.730;9.304;2024-02-04T08:49:15;98632.69;;;8.19;100.00
967;BME280;56108;48.730;9.304;2024-02-04T08:51:24;98631.31;;;8.31;100.00
967;BME280;56108;48.730;9.304;2024-02-04T08:53:35;98635.91;;;8.48;100.00
967;BME280;56108;48.730;9.304;2024-02-04T08:55:44;98636.16;;;8.21;100.00
967;BME280;56108;48.730;9.304;2024-02-04T08:57:55;98634.97;;;8.28;100.00
967;BME280;56108;48.730;9.304;2024-02-04T09:00:05;98622.75;;;8.24;100.00
967;BME280;56108;48.730;9.304;2024-02-04T09:02:16;98615.94;;;8.19;100.00
967;BME280;56108;48.730;9.304;2024-02-04T09:04:25;98616.09;;;8.16;100.00
967;BME280;56108;48.730;9.304;2024-02-04T09:06:33;98612.69;;;8.12;100.00
967;BME280;56108;48.730;9.304;2024-02-04T09:08:42;98614.22;;;8.18;100.00
967;BME280;56108;48.730;9.304;2024-02-04T09:10:47;98611.44;;;8.21;100.00
967;BME280;56108;48.730;9.304;2024-02-04T09:12:56;98618.13;;;8.09;100.00
967;BME280;56108;48.730;9.304;2024-02-04T09:15:05;98613.75;;;8.08;100.00
967;BME280;56108;48.730;9.304;2024-02-04T09:17:16;98615.81;;;8.22;100.00
967;BME280;56108;48.730;9.304;2024-02-04T09:19:25;98613.47;;;8.14;100.00
967;BME280;56108;48.730;9.304;2024-02-04T09:21:33;98616.34;;;8.09;100.00
967;BME280;56108;48.730;9.304;2024-02-04T09:23:42;98619.31;;;8.22;100.00
967;BME280;56108;48.730;9.304;2024-02-04T09:25:50;98616.09;;;8.16;100.00
967;BME280;56108;48.730;9.304;2024-02-04T09:28:03;98618.06;;;8.10;100.00
967;BME280;56108;48.730;9.304;2024-02-04T09:30:12;98615.34;;;8.12;100.00
967;BME280;56108;48.730;9.304;2024-02-04T09:32:24;98624.53;;;8.03;100.00
967;BME280;56108;48.730;9.304;2024-02-04T09:34:32;98627.66;;;7.93;100.00
967;BME280;56108;48.730;9.304;2024-02-04T09:36:41;98638.50;;;7.87;100.00
967;BME280;56108;48.730;9.304;2024-02-04T09:38:49;98628.31;;;7.98;100.00
967;BME280;56108;48.730;9.304;2024-02-04T09:40:58;98632.84;;;7.96;100.00
967;BME280;56108;48.730;9.304;2024-02-04T09:43:08;98629.72;;;8.06;100.00
967;BME280;56108;48.730;9.304;2024-02-04T09:45:17;98635.69;;;8.11;100.00
967;BME280;56108;48.730;9.304;2024-02-04T09:47:32;98632.50;;;8.24;100.00
967;BME280;56108;48.730;9.304;2024-02-04T09:49:44;98626.16;;;8.28;100.00
967;BME280;56108;48.730;9.304;2024-02-04T09:51:56;98630.59;;;8.48;100.00
967;BME280;56108;48.730;9.304;2024-02-04T09:54:10;98642.47;;;8.59;100.00
967;BME280;56108;48.730;9.304;2024-02-04T09:56:18;98637.47;;;8.72;100.00
967;BME280;56108;48.730;9.304;2024-02-04T09:58:30;98630.44;;;8.90;100.00
967;BME280;56108;48.730;9.304;2024-02-04T10:00:38;98628.56;;;8.73;100.00
967;BME280;56108;48.730;9.304;2024-02-04T10:02:53;98615.94;;;8.97;100.00
967;BME280;56108;48.730;9.304;2024-02-04T10:05:04;98610.31;;;9.05;100.00
967;BME280;56108;48.730;9.304;2024-02-04T10:07:15;98602.69;;;8.97;100.00
967;BME280;56108;48.730;9.304;2024-02-04T10:09:24;98602.16;;;9.08;100.00
967;BME280;56108;48.730;9.304;2024-02-04T10:11:32;98604.69;;;9.11;100.00
967;BME280;56108;48.730;9.304;2024-02-04T10:13:48;98588.63;;;9.14;100.00
967;BME280;56108;48.730;9.304;2024-02-04T10:15:56;98582.81;;;9.06;100.00
967;BME280;56108;48.730;9.304;2024-02-04T10:18:08;98589.97;;;9.23;100.00
967;BME280;56108;48.730;9.304;2024-02-04T10:20:16;98575.81;;;9.22;100.00
967;BME280;56108;48.730;9.304;2024-02-04T10:22:26;98581.81;;;9.45;100.00
967;BME280;56108;48.730;9.304;2024-02-04T10:24:34;98584.19;;;9.51;100.00
967;BME280;56108;48.730;9.304;2024-02-04T10:26:43;98577.22;;;9.65;100.00
967;BME280;56108;48.730;9.304;2024-02-04T10:28:52;98575.03;;;9.56;100.00
967;BME280;56108;48.730;9.304;2024-02-04T10:31:00;98561.91;;;9.53;100.00
967;BME280;56108;48.730;9.304;2024-02-04T10:33:11;98571.63;;;9.72;100.00
967;BME280;56108;48.730;9.304;2024-02-04T10:35:22;98577.78;;;9.72;100.00
967;BME280;56108;48.730;9.304;2024-02-04T10:37:31;98571.78;;;10.03;100.00
967;BME280;56108;48.730;9.304;2024-02-04T10:39:39;98565.41;;;10.23;100.00
967;BME280;56108;48.730;9.304;2024-02-04T10:41:49;98573.78;;;10.15;100.00
967;BME280;56108;48.730;9.304;2024-02-04T10:44:01;98576.38;;;10.17;100.00
967;BME280;56108;48.730;9.304;2024-02-04T10:46:13;98587.41;;;10.27;100.00
967;BME280;56108;48.730;9.304;2024-02-04T10:48:26;98574.25;;;10.41;100.00
967;BME280;56108;48.730;9.304;2024-02-04T10:50:36;98542.03;;;10.30;100.00
967;BME280;56108;48.730;9.304;2024-02-04T10:52:48;98542.88;;;10.63;100.00
967;BME280;56108;48.730;9.304;2024-02-04T10:54:57;98559.66;;;10.81;100.00
967;BME280;56108;48.730;9.304;2024-02-04T10:57:12;98568.34;;;10.52;100.00
967;BME280;56108;48.730;9.304;2024-02-04T10:59:24;98550.06;;;10.45;100.00
967;BME280;56108;48.730;9.304;2024-02-04T11:01:38;98559.53;;;10.51;100.00
967;BME280;56108;48.730;9.304;2024-02-04T11:03:50;98555.91;;;10.52;100.00
967;BME280;56108;48.730;9.304;2024-02-04T11:06:00;98563.56;;;10.25;100.00
967;BME280;56108;48.730;9.304;2024-02-04T11:08:11;98555.97;;;10.00;100.00
967;BME280;56108;48.730;9.304;2024-02-04T11:10:22;98556.38;;;9.92;100.00
967;BME280;56108;48.730;9.304;2024-02-04T11:12:31;98543.84;;;9.94;100.00
967;BME280;56108;48.730;9.304;2024-02-04T11:14:41;98527.41;;;9.86;100.00
967;BME280;56108;48.730;9.304;2024-02-04T11:17:15;98519.06;;;9.94;100.00
967;BME280;56108;48.730;9.304;2024-02-04T11:19:47;98522.34;;;9.99;100.00
967;BME280;56108;48.730;9.304;2024-02-04T11:22:17;98511.75;;;10.15;100.00
967;BME280;56108;48.730;9.304;2024-02-04T11:24:39;98519.09;;;10.27;100.00
967;BME280;56108;48.730;9.304;2024-02-04T11:26:52;98516.44;;;10.60;100.00
967;BME280;56108;48.730;9.304;2024-02-04T11:29:03;98520.38;;;10.85;100.00
967;BME280;56108;48.730;9.304;2024-02-04T11:31:17;98521.09;;;11.04;100.00
967;BME280;56108;48.730;9.304;2024-02-04T11:33:27;98520.81;;;11.09;100.00
967;BME280;56108;48.730;9.304;2024-02-04T11:35:41;98530.19;;;11.16;100.00
967;BME280;56108;48.730;9.304;2024-02-04T11:38:04;98535.34;;;11.19;100.00
967;BME280;56108;48.730;9.304;2024-02-04T11:40:14;98535.69;;;11.29;100.00
967;BME280;56108;48.730;9.304;2024-02-04T11:42:31;98535.34;;;11.19;100.00
967;BME280;56108;48.730;9.304;2024-02-04T11:45:08;98525.03;;;11.13;100.00